Time;durP1;ratioP1;P1;durP2;ratioP2;P2;SDS_P1;SDS_P2;PMS_P1;PMS_P2;Temp;Humidity;BMP_temperature;BMP_pressure;BME280_temperature;BME280_humidity;BME280_pressure;Samples;Min_cycle;Max_cycle;Signal;HPM_P1;HPM_P2
2024/04/10 00:26:53;;;;;;;0.00;0.00;;;;;;;5.48;100.00;101143.53;6259009;22;20003;-81
2024/04/10 00:29:21;;;;;;;0.00;0.00;;;;;;;5.27;100.00;101108.53;6282482;22;20055;-79
2024/04/10 00:31:53;;;;;;;0.00;0.00;;;;;;;5.43;100.00;101146.03;6239283;22;20000;-79
2024/04/10 00:34:19;;;;;;;0.03;0.03;;;;;;;5.30;100.00;101141.50;6281446;22;20374;-80
2024/04/10 00:37:09;;;;;;;0.10;0.10;;;;;;;5.20;100.00;101103.16;6372421;22;20479;-80
2024/04/10 00:39:35;;;;;;;0.00;0.00;;;;;;;5.19;100.00;101096.06;6400635;22;20016;-80
2024/04/10 00:42:29;;;;;;;;;;;;;;;;;;;;;
2024/04/10 00:44:55;;;;;;;0.10;0.10;;;;;;;5.37;100.00;101088.06;6436282;22;20013;-81
2024/04/10 00:47:23;;;;;;;0.00;0.00;;;;;;;5.59;100.00;101114.88;6432611;22;19998;-82
2024/04/10 00:49:56;;;;;;;0.00;0.00;;;;;;;5.65;100.00;101115.88;6394565;22;19997;-82
2024/04/10 00:52:23;;;;;;;0.00;0.00;;;;;;;5.70;100.00;101118.81;6393094;22;19998;-82
2024/04/10 00:54:49;;;;;;;0.03;0.03;;;;;;;5.68;100.00;101120.88;6393411;22;20016;-81
2024/04/10 00:57:17;;;;;;;0.10;0.10;;;;;;;5.75;100.00;101136.09;6391321;22;19998;-80
2024/04/10 00:59:43;;;;;;;0.00;0.00;;;;;;;5.30;100.00;101089.97;6429846;22;20004;-80
2024/04/10 01:02:12;;;;;;;0.00;0.00;;;;;;;5.40;100.00;101125.63;6431679;22;20308;-79
2024/04/10 01:04:37;;;;;;;0.00;0.00;;;;;;;5.36;100.00;101124.38;6474891;22;20033;-80
2024/04/10 01:07:09;;;;;;;0.00;0.00;;;;;;;5.33;100.00;101118.53;6427953;22;19993;-81
2024/04/10 01:09:38;;;;;;;0.00;0.00;;;;;;;5.21;100.00;101111.06;6389503;22;19998;-81
2024/04/10 01:12:06;;;;;;;0.00;0.00;;;;;;;5.22;100.00;101111.91;6428214;22;20010;-77
2024/04/10 01:14:55;;;;;;;0.00;0.00;;;;;;;5.37;100.00;101125.19;6429392;22;20416;-79
2024/04/10 01:17:23;;;;;;;0.00;0.00;;;;;;;5.20;100.00;101098.56;6357829;22;20012;-78
2024/04/10 01:19:51;;;;;;;0.00;0.00;;;;;;;5.26;100.00;101102.28;6387747;22;20408;-79
2024/04/10 01:22:17;;;;;;;0.00;0.00;;;;;;;5.31;100.00;101116.03;6429078;22;20013;-81
2024/04/10 01:24:42;;;;;;;0.00;0.00;;;;;;;5.22;100.00;101112.72;6430533;22;20297;-79
2024/04/10 01:27:08;;;;;;;0.10;0.10;;;;;;;5.28;100.00;101134.63;6385131;22;20028;-78
2024/04/10 01:29:36;;;;;;;0.00;0.00;;;;;;;5.27;100.00;101147.34;6387726;22;20012;-79
2024/04/10 01:46:33;;;;;;;0.00;0.00;;;;;;;5.04;100.00;101121.53;6533550;21;19994;-76
2024/04/10 01:48:59;;;;;;;;;;;;;;;5.28;100.00;101157.13;6472538;22;20013;-76
2024/04/10 01:51:24;;;;;;;0.00;0.00;;;;;;;4.99;100.00;101118.63;6429275;22;19922;-75
2024/04/10 01:53:55;;;;;;;0.00;0.00;;;;;;;4.90;100.00;101119.91;6429533;22;20057;-76
2024/04/10 01:56:20;;;;;;;0.00;0.00;;;;;;;4.85;100.00;101135.97;6474875;22;20417;-77
2024/04/10 01:58:48;;;;;;;0.00;0.00;;;;;;;4.85;100.00;101146.81;6428708;22;20002;-75
2024/04/10 02:01:14;;;;;;;0.00;0.00;;;;;;;4.92;100.00;101158.47;6471486;22;20461;-76
2024/04/10 02:03:39;;;;;;;0.00;0.00;;;;;;;4.96;100.00;101154.28;6429536;22;20002;-76
2024/04/10 02:06:05;;;;;;;0.00;0.00;;;;;;;4.93;100.00;101157.41;6426147;22;20133;-76
2024/04/10 02:08:30;;;;;;;0.00;0.00;;;;;;;4.94;100.00;101150.13;6387506;22;20012;-77
2024/04/10 02:11:19;;;;;;;0.00;0.00;;;;;;;5.05;100.00;101161.16;6384254;22;20006;-75
2024/04/10 02:13:56;;;;;;;;;;;;;;;;;;;;;
2024/04/10 02:16:25;;;;;;;0.00;0.00;;;;;;;4.98;100.00;101145.94;6391327;22;19998;-75
2024/04/10 02:18:59;;;;;;;0.10;0.10;;;;;;;4.93;100.00;101141.16;6427841;22;20000;-76
2024/04/10 02:21:27;;;;;;;0.00;0.00;;;;;;;4.88;100.00;101139.09;6350181;22;20397;-75
2024/04/10 02:23:55;;;;;;;0.00;0.00;;;;;;;4.94;100.00;101153.66;6428109;22;20009;-75
2024/04/10 02:26:20;;;;;;;0.00;0.00;;;;;;;4.81;100.00;101132.84;6470230;22;20372;-78
2024/04/10 02:28:46;;;;;;;0.00;0.00;;;;;;;5.02;100.00;101167.00;6471844;22;20006;-74
2024/04/10 02:31:11;;;;;;;0.00;0.00;;;;;;;4.96;100.00;101145.31;6473172;22;20138;-75
2024/04/10 02:33:47;;;;;;;0.00;0.00;;;;;;;4.96;100.00;101135.31;6381530;22;19994;-75
2024/04/10 02:36:12;;;;;;;0.10;0.10;;;;;;;5.01;100.00;101135.53;6427950;22;20072;-75
2024/04/10 02:38:41;;;;;;;0.00;0.00;;;;;;;5.06;100.00;101119.44;6427462;22;20006;-76
2024/04/10 02:41:07;;;;;;;0.00;0.00;;;;;;;5.21;100.00;101148.19;6387095;22;20030;-77
2024/04/10 02:43:32;;;;;;;0.10;0.10;;;;;;;5.19;100.00;101144.88;6385242;22;19998;-76
2024/04/10 02:46:05;;;;;;;0.00;0.00;;;;;;;5.29;100.00;101153.38;6427859;22;20038;-76
2024/04/10 02:48:31;;;;;;;0.00;0.00;;;;;;;5.11;100.00;101132.38;6468835;22;20022;-75
2024/04/10 02:51:00;;;;;;;0.00;0.00;;;;;;;5.17;100.00;101153.22;6386384;22;20471;-76
2024/04/10 02:53:27;;;;;;;0.00;0.00;;;;;;;5.15;100.00;101165.31;6471827;22;20042;-76
2024/04/10 02:55:54;;;;;;;0.00;0.00;;;;;;;5.02;100.00;101158.88;6470252;22;19998;-75
2024/04/10 02:58:29;;;;;;;0.10;0.10;;;;;;;5.01;100.00;101157.22;6386872;22;20080;-76
2024/04/10 03:00:57;;;;;;;0.00;0.00;;;;;;;4.90;100.00;101138.88;6345329;22;20005;-76
2024/04/10 03:03:24;;;;;;;0.00;0.00;;;;;;;5.06;100.00;101157.38;6428034;22;20476;-76
2024/04/10 03:06:30;;;;;;;0.00;0.00;;;;;;;5.04;100.00;101145.94;6426397;22;20006;-75
2024/04/10 03:08:52;;;;;;;0.00;0.00;;;;;;;5.27;100.00;101169.06;6466841;22;19994;-75
2024/04/10 03:11:21;;;;;;;0.00;0.00;;;;;;;5.14;100.00;101152.78;6471112;22;19998;-76
2024/04/10 03:14:01;;;;;;;;;;;;;;;;;;;;;
2024/04/10 03:16:26;;;;;;;0.00;0.00;;;;;;;5.11;100.00;101151.34;6432331;22;19998;-76
2024/04/10 03:19:08;;;;;;;0.00;0.00;;;;;;;5.03;100.00;101144.25;6425412;22;20012;-77
2024/04/10 03:22:12;;;;;;;;;;;;;;;;;;;;;
2024/04/10 03:24:38;;;;;;;0.00;0.00;;;;;;;4.93;100.00;101148.47;6471812;22;20009;-76
2024/04/10 03:27:04;;;;;;;0.00;0.00;;;;;;;4.97;100.00;101169.50;6428445;22;19998;-77
2024/04/10 03:29:33;;;;;;;0.10;0.10;;;;;;;4.93;100.00;101160.13;6427348;22;20068;-77
2024/04/10 03:39:22;;;;;;;0.00;0.00;;;;;;;4.83;100.00;101173.28;6471789;22;20394;-77
2024/04/10 03:42:12;;;;;;;0.00;0.00;;;;;;;4.67;100.00;101163.69;6473455;22;19998;-78
2024/04/10 03:44:45;;;;;;;0.00;0.00;;;;;;;4.71;100.00;101175.78;6431774;22;20002;-76
2024/04/10 03:47:13;;;;;;;0.00;0.00;;;;;;;4.63;100.00;101170.56;6427904;22;20002;-80
2024/04/10 03:49:41;;;;;;;0.00;0.00;;;;;;;4.81;100.00;101208.72;6430405;22;20319;-79
2024/04/10 03:52:06;;;;;;;0.00;0.00;;;;;;;4.79;100.00;101205.38;6387377;22;20428;-78
2024/04/10 03:54:35;;;;;;;0.00;0.00;;;;;;;4.70;100.00;101202.06;6429894;22;20022;-78
2024/04/10 03:57:09;;;;;;;0.00;0.00;;;;;;;4.67;100.00;101202.47;6429797;22;20066;-78
2024/04/10 03:59:34;;;;;;;0.00;0.00;;;;;;;4.61;100.00;101203.28;6430554;22;20001;-78
2024/04/10 04:02:00;;;;;;;0.00;0.00;;;;;;;4.65;100.00;101215.38;6389188;22;20002;-79
2024/04/10 04:04:25;;;;;;;0.00;0.00;;;;;;;4.64;100.00;101213.69;6349373;22;20420;-77
2024/04/10 04:06:51;;;;;;;0.00;0.00;;;;;;;4.51;100.00;101202.84;6431384;22;20502;-79
2024/04/10 04:09:20;;;;;;;0.03;0.03;;;;;;;4.63;100.00;101228.31;6429445;22;20037;-78
2024/04/10 04:11:53;;;;;;;0.10;0.10;;;;;;;4.67;100.00;101228.72;6389842;22;20026;-80
2024/04/10 04:14:32;;;;;;;;;;;;;;;;;;;;;
2024/04/10 04:17:06;;;;;;;0.03;0.03;;;;;;;4.54;100.00;101213.28;6475762;22;20009;-81
2024/04/10 04:19:46;;;;;;;;;;;;;;;;;;;;;
2024/04/10 04:22:53;;;;;;;;;;;;;;;;;;;;;
2024/04/10 04:25:38;;;;;;;0.00;0.00;;;;;;;4.90;100.00;101253.53;6473093;22;19998;-79
2024/04/10 04:28:32;;;;;;;0.00;0.00;;;;;;;4.77;100.00;101212.88;6428019;22;19998;-81
2024/04/10 04:31:15;;;;;;;;;;;;;;;;;;;;;
2024/04/10 04:34:09;;;;;;;;;;;;;;;;;;;;;
2024/04/10 04:36:41;;;;;;;0.00;0.00;;;;;;;4.88;100.00;101212.25;6437160;22;19998;-80
2024/04/10 04:39:13;;;;;;;0.10;0.10;;;;;;;5.17;100.00;101260.81;6430079;22;19998;-80
2024/04/10 04:42:03;;;;;;;0.05;0.05;;;;;;;5.10;100.00;101243.75;6352646;22;20014;-80
2024/04/10 04:45:17;;;;;;;0.10;0.10;;;;;;;5.25;100.00;101252.47;6424601;22;20003;-80
2024/04/10 04:48:06;;;;;;;;;;;;;;;;;;;;;
2024/04/10 05:14:58;;;;;;;0.00;0.00;;;;;;;5.33;100.00;101260.41;6420771;22;20006;-79
2024/04/10 05:17:31;;;;;;;0.00;0.00;;;;;;;5.38;100.00;101257.06;6380411;22;20037;-79
2024/04/10 05:24:11;;;;;;;0.00;0.00;;;;;;;5.29;100.00;101232.03;6239261;22;20015;-80
2024/04/10 05:26:46;;;;;;;;;;;;;;;;;;;;;
2024/04/10 05:29:33;;;;;;;;;;;;;;;;;;;;;
2024/04/10 05:33:12;;;;;;;0.00;0.00;;;;;;;5.45;100.00;101289.59;6223526;23;19997;-80
2024/04/10 05:36:35;;;;;;;;;;;;;;;;;;;;;
2024/04/10 05:46:31;;;;;;;;;;;;;;;;;;;;;
2024/04/10 05:52:30;;;;;;;0.00;0.00;;;;;;;4.66;100.00;101265.00;6209947;23;20005;-80
2024/04/10 05:54:59;;;;;;;0.00;0.00;;;;;;;4.71;100.00;101278.75;6224807;23;20001;-79
2024/04/10 05:57:26;;;;;;;0.00;0.00;;;;;;;4.76;100.00;101287.09;6327458;22;19998;-79
2024/04/10 05:59:54;;;;;;;0.00;0.00;;;;;;;4.72;100.00;101294.78;6377533;22;20014;-81
2024/04/10 06:02:38;;;;;;;0.00;0.00;;;;;;;4.57;100.00;101275.19;6374997;22;19994;-79
2024/04/10 06:05:13;;;;;;;0.00;0.00;;;;;;;4.59;100.00;101285.81;6343856;22;20002;-81
2024/04/10 06:07:46;;;;;;;0.00;0.00;;;;;;;4.70;100.00;101305.03;6376290;22;19998;-80
2024/04/10 06:22:07;;;;;;;;;;;;;;;;;;;;;
2024/04/10 06:25:26;;;;;;;0.00;0.00;;;;;;;4.97;100.00;101310.47;6224503;23;20005;-80
2024/04/10 06:28:25;;;;;;;0.00;0.00;;;;;;;4.79;100.00;101264.16;6283621;22;20018;-80
2024/04/10 06:31:43;;;;;;;;;;;;;;;;;;;;;
2024/04/10 06:45:39;;;;;;;;;;;;;;;;;;;;;
2024/04/10 06:48:46;;;;;;;0.00;0.00;;;;;;;6.43;100.00;101266.94;6177735;23;20006;-78
2024/04/10 06:52:20;;;;;;;;;;;;;;;;;;;;;
2024/04/10 06:54:48;;;;;;;0.00;0.00;;;;;;;7.63;100.00;101300.53;6362649;22;20003;-76
2024/04/10 06:57:27;;;;;;;0.00;0.00;;;;;;;8.01;100.00;101288.59;6324343;22;20014;-75
2024/04/10 07:00:01;;;;;;;0.00;0.00;;;;;;;8.48;100.00;101286.13;6252249;22;20015;-75
2024/04/10 07:02:42;;;;;;;0.00;0.00;;;;;;;9.26;100.00;101300.66;6367866;22;19995;-76
2024/04/10 07:05:08;;;;;;;0.00;0.00;;;;;;;9.73;100.00;101285.38;6327951;22;20011;-77
2024/04/10 07:07:33;;;;;;;0.00;0.00;;;;;;;10.16;100.00;101311.41;6284692;22;20003;-76
2024/04/10 07:10:11;;;;;;;0.00;0.00;;;;;;;10.21;100.00;101314.25;6287381;22;20000;-78
2024/04/10 07:12:45;;;;;;;0.00;0.00;;;;;;;10.08;100.00;101270.81;6291303;22;20052;-78
2024/04/10 07:15:58;;;;;;;;;;;;;;;;;;;;;
2024/04/10 07:21:34;;;;;;;0.00;0.00;;;;;;;10.38;100.00;101305.31;6347888;22;20011;-77
2024/04/10 07:24:14;;;;;;;;;;;;;;;;;;;;;
2024/04/10 07:26:40;;;;;;;0.00;0.00;;;;;;;10.75;100.00;101296.72;6415437;22;20503;-77
2024/04/10 07:29:08;;;;;;;0.00;0.00;;;;;;;10.93;96.48;101317.56;6417920;22;19998;-78
2024/04/10 07:31:39;;;;;;;0.00;0.00;;;;;;;10.76;95.44;101288.28;6418136;22;19999;-78
2024/04/10 07:34:14;;;;;;;0.00;0.00;;;;;;;11.05;95.68;101301.06;6417466;22;20026;-77
2024/04/10 07:36:43;;;;;;;0.00;0.00;;;;;;;11.22;94.82;101296.44;6417059;22;20375;-77
2024/04/10 07:39:19;;;;;;;;;;;;;;;;;;;;;
2024/04/10 07:42:12;;;;;;;;;;;;;;;;;;;;;
2024/04/10 07:44:58;;;;;;;0.00;0.00;;;;;;;11.86;92.54;101308.88;6420482;22;19995;-77
2024/04/10 07:48:00;;;;;;;;;;;;;;;;;;;;;
2024/04/10 07:50:46;;;;;;;0.00;0.00;;;;;;;11.34;92.62;101282.66;6418873;22;20306;-76
2024/04/10 07:53:27;;;;;;;0.00;0.00;;;;;;;11.25;93.56;101289.63;6418336;22;20047;-76
2024/04/10 07:55:52;;;;;;;0.00;0.00;;;;;;;11.17;93.71;101282.66;6415296;22;20342;-77
2024/04/10 07:58:21;;;;;;;0.00;0.00;;;;;;;11.13;93.72;101284.25;6378646;22;20013;-75
2024/04/10 08:00:46;;;;;;;0.00;0.00;;;;;;;11.17;93.95;101277.19;6336803;22;20016;-77
2024/04/10 08:06:44;;;;;;;0.00;0.00;;;;;;;11.33;92.61;101251.72;6399484;22;20002;-77
2024/04/10 08:12:43;;;;;;;0.00;0.00;;;;;;;12.50;89.66;101304.75;6384528;22;19991;-76
2024/04/10 08:15:49;;;;;;;;;;;;;;;;;;;;;
2024/04/10 08:22:15;;;;;;;0.00;0.00;;;;;;;13.00;86.70;101303.63;6406751;22;19998;-77
2024/04/10 08:25:24;;;;;;;;;;;;;;;;;;;;;
2024/04/10 08:28:38;;;;;;;;;;;;;;;;;;;;;
2024/04/10 08:31:56;;;;;;;0.00;0.00;;;;;;;14.59;76.04;101272.63;6421149;22;20005;-77
2024/04/10 08:34:16;;;;;;;0.00;0.00;;;;;;;14.57;75.95;101281.16;6262684;22;20237;-77
2024/04/10 08:36:54;;;;;;;;;;;;;;;;;;;;;
2024/04/10 08:40:41;;;;;;;0.00;0.00;;;;;;;14.65;76.24;101272.38;6419748;22;19994;-77
2024/04/10 08:50:41;;;;;;;;;;;;;;;13.62;77.04;101309.59;5954723;24;20005;-77
2024/04/10 09:07:51;;;;;;;;;;;;;;;;;;;;;
2024/04/10 09:10:13;;;;;;;0.00;0.00;;;;;;;13.17;77.32;101291.66;5855113;24;20007;-77
2024/04/10 09:16:39;;;;;;;0.00;0.00;;;;;;;12.88;73.76;101267.28;5890589;24;20519;-78
2024/04/10 09:19:44;;;;;;;0.00;0.00;;;;;;;13.16;71.49;101323.81;5902224;24;20003;-77
2024/04/10 09:22:18;;;;;;;0.00;0.00;;;;;;;12.87;70.19;101271.09;5875140;24;20013;-77
2024/04/10 09:25:21;;;;;;;0.00;0.00;;;;;;;12.78;70.59;101280.91;5906091;23;20005;-76
2024/04/10 09:39:53;;;;;;;;;;;;;;;;;;;;;
2024/04/10 09:46:38;;;;;;;0.00;0.00;;;;;;;15.44;59.77;101277.63;5834763;24;20018;-77
2024/04/10 09:49:58;;;;;;;;;;;;;;;;;;;;;
2024/04/10 10:03:09;;;;;;;0.00;0.00;;;;;;;15.13;62.29;101274.09;5952421;24;19997;-77
2024/04/10 10:13:09;;;;;;;;;;;;;;;;;;;;;
2024/04/10 10:16:11;;;;;;;;;;;;;;;;;;;;;
2024/04/10 10:26:20;;;;;;;0.00;0.00;;;;;;;10.91;95.14;101238.44;5747294;24;20016;-77
2024/04/10 10:29:09;;;;;;;0.00;0.00;;;;;;;10.71;100.00;101270.94;5927238;24;20001;-77
2024/04/10 10:32:05;;;;;;;;;;;;;;;;;;;;;
2024/04/10 10:38:09;;;;;;;;;;;;;;;;;;;;;
2024/04/10 10:41:33;;;;;;;0.00;0.00;;;;;;;9.96;100.00;101293.50;5948902;24;20715;-78
2024/04/10 10:43:59;;;;;;;0.00;0.00;;;;;;;9.74;100.00;101252.34;5866197;24;20003;-78
2024/04/10 10:50:02;;;;;;;0.00;0.00;;;;;;;10.17;100.00;101263.88;5972844;22;20324;-77
2024/04/10 10:52:52;;;;;;;;;;;;;;;;;;;;;
2024/04/10 10:55:55;;;;;;;0.00;0.00;;;;;;;10.17;100.00;101233.81;6382495;22;20009;-76
2024/04/10 11:03:03;;;;;;;0.00;0.00;;;;;;;10.44;100.00;101234.09;6039798;23;20056;-78
2024/04/10 11:06:11;;;;;;;0.00;0.00;;;;;;;10.87;100.00;101288.44;5918457;23;20049;-78
2024/04/10 11:12:35;;;;;;;0.00;0.00;;;;;;;10.81;100.00;101273.84;6346269;22;20076;-78
2024/04/10 11:15:11;;;;;;;0.00;0.00;;;;;;;11.10;100.00;101331.28;6221140;23;20510;-78
2024/04/10 11:43:21;;;;;;;;;;;;;;;;;;;;;
2024/04/10 17:11:01;;;;;;;;;;;;;;;;;;;;;
2024/04/10 17:14:29;;;;;;;;;;;;;;;;;;;;;
2024/04/10 17:24:33;;;;;;;;;;;;;;;;;;;;;
2024/04/10 17:31:19;;;;;;;0.00;0.00;;;;;;;10.92;100.00;101242.84;5894006;24;20004;-81
2024/04/10 17:34:49;;;;;;;;;;;;;;;;;;;;;
2024/04/10 17:38:29;;;;;;;;;;;;;;;;;;;;;
2024/04/10 17:42:04;;;;;;;;;;;;;;;;;;;;;
2024/04/10 17:52:49;;;;;;;;;;;;;;;;;;;;;
2024/04/10 17:55:59;;;;;;;0.00;0.00;;;;;;;11.04;100.00;101228.25;6052445;23;19999;-80
2024/04/10 18:02:32;;;;;;;;;;;;;;;;;;;;;
2024/04/10 18:12:49;;;;;;;;;;;;;;;;;;;;;
2024/04/10 18:15:18;;;;;;;0.00;0.00;;;;;;;10.99;100.00;101197.00;6425473;22;20003;-79
2024/04/10 18:38:46;;;;;;;0.10;0.10;;;;;;;10.80;100.00;101192.84;6472141;22;20009;-78
2024/04/10 18:45:34;;;;;;;0.00;0.00;;;;;;;10.77;100.00;101168.72;6202702;23;19997;-79
2024/04/10 18:51:54;;;;;;;0.00;0.00;;;;;;;10.79;100.00;101196.66;6007735;23;21078;-78
2024/04/10 18:54:23;;;;;;;0.10;0.10;;;;;;;10.77;100.00;101182.41;6215413;22;20024;-77
2024/04/10 19:00:55;;;;;;;0.00;0.00;;;;;;;11.03;100.00;101232.91;6467320;22;20004;-79
2024/04/10 20:00:55;;;;;;;0.00;0.00;;;;;;;11.07;100.00;101266.06;6395224;22;20006;-77
2024/04/10 20:03:20;;;;;;;0.00;0.00;;;;;;;10.78;100.00;101225.09;6338326;22;19990;-78
2024/04/10 20:06:07;;;;;;;0.10;0.10;;;;;;;10.79;100.00;101221.28;6378610;22;20006;-77
2024/04/10 20:08:40;;;;;;;0.00;0.00;;;;;;;10.82;100.00;101232.56;6375133;22;20006;-78
2024/04/10 20:11:09;;;;;;;0.00;0.00;;;;;;;10.95;100.00;101260.66;6379134;22;20013;-76
2024/04/10 20:13:47;;;;;;;;;;;;;;;;;;;;;
2024/04/10 20:16:16;;;;;;;0.00;0.00;;;;;;;10.76;100.00;101238.19;6421152;22;20003;-77
2024/04/10 20:18:46;;;;;;;0.00;0.00;;;;;;;10.77;100.00;101261.72;6375715;22;19994;-77
2024/04/10 20:21:13;;;;;;;0.00;0.00;;;;;;;10.67;100.00;101245.16;6424038;22;20010;-77
2024/04/10 20:23:38;;;;;;;0.00;0.00;;;;;;;10.80;100.00;101283.13;6334472;22;20009;-76
2024/04/10 20:26:05;;;;;;;0.00;0.00;;;;;;;10.97;100.00;101278.50;6380950;22;19998;-76
2024/04/10 20:28:40;;;;;;;0.00;0.00;;;;;;;10.80;100.00;101248.38;6380725;22;19995;-78
2024/04/10 20:31:10;;;;;;;0.00;0.00;;;;;;;10.84;100.00;101256.94;6378741;22;19995;-76
2024/04/10 20:33:50;;;;;;;0.00;0.00;;;;;;;10.93;100.00;101258.19;6423925;22;20009;-77
2024/04/10 20:36:19;;;;;;;0.00;0.00;;;;;;;10.91;100.00;101245.84;6379535;22;20030;-75
2024/04/10 20:38:44;;;;;;;0.00;0.00;;;;;;;10.89;100.00;101243.31;6340177;22;20474;-77
2024/04/10 20:41:40;;;;;;;0.00;0.00;;;;;;;10.81;100.00;101238.28;6421923;22;20385;-76
2024/04/10 20:50:59;;;;;;;;;;;;;;;11.00;100.00;101272.53;6384156;22;20426;-77
2024/04/10 20:53:25;;;;;;;0.00;0.00;;;;;;;10.84;100.00;101246.00;6379580;22;19933;-77
2024/04/10 20:56:05;;;;;;;0.00;0.00;;;;;;;10.98;100.00;101274.69;6339069;22;20406;-76
2024/04/10 20:58:34;;;;;;;0.10;0.10;;;;;;;10.99;100.00;101281.84;6380014;22;20013;-76
2024/04/10 21:01:13;;;;;;;0.00;0.00;;;;;;;10.79;100.00;101237.69;6379307;22;20003;-78
2024/04/10 21:03:47;;;;;;;0.00;0.00;;;;;;;11.00;100.00;101250.63;6379847;22;20060;-76
2024/04/10 22:12:45;;;;;;;0.10;0.10;;;;;;;11.45;100.00;101338.44;6224393;22;20417;-77
2024/04/10 22:15:10;;;;;;;0.00;0.00;;;;;;;11.18;100.00;101287.03;6213160;23;20035;-76
2024/04/10 22:29:36;;;;;;;;;;;;;;;;;;;;;
2024/04/10 22:40:55;;;;;;;;;;;;;;;;;;;;;
2024/04/10 23:37:12;;;;;;;0.00;0.00;;;;;;;11.59;100.00;101366.28;6370389;22;19994;-74
2024/04/10 23:40:09;;;;;;;0.00;0.00;;;;;;;11.51;100.00;101375.75;6336088;22;20005;-74
2024/04/10 23:42:33;;;;;;;0.00;0.00;;;;;;;11.47;100.00;101374.59;6418321;22;19995;-75
2024/04/10 23:45:12;;;;;;;0.00;0.00;;;;;;;11.51;100.00;101387.53;6372716;22;20073;-75
2024/04/10 23:48:27;;;;;;;0.00;0.00;;;;;;;11.27;100.00;101359.50;6373806;22;20023;-74
2024/04/10 23:50:52;;;;;;;0.00;0.00;;;;;;;11.34;100.00;101370.28;6417697;22;20085;-74
2024/04/10 23:53:23;;;;;;;0.00;0.00;;;;;;;11.37;100.00;101364.28;6378174;22;19998;-74
2024/04/10 23:55:56;;;;;;;0.00;0.00;;;;;;;11.14;100.00;101337.88;6335304;22;20010;-74
2024/04/10 23:59:16;;;;;;;;;;;;;;;;;;;;;
